Time;durP1;ratioP1;P1;durP2;ratioP2;P2;SDS_P1;SDS_P2;PMS_P1;PMS_P2;Temp;Humidity;BMP_temperature;BMP_pressure;BME280_temperature;BME280_humidity;BME280_pressure;Samples;Min_cycle;Max_cycle;Signal;HPM_P1;HPM_P2
2023/12/21 00:02:08;;;;;;;5.57;2.50;;;3.10;99.90;;;;;;4406952;28;656395;-72
2023/12/21 00:04:55;;;;;;;7.00;2.90;;;3.00;99.90;;;;;;4421909;28;657176;-72
2023/12/21 00:07:42;;;;;;;5.23;2.67;;;3.00;99.90;;;;;;4421182;28;656794;-73
2023/12/21 00:10:31;;;;;;;6.13;2.50;;;3.00;99.90;;;;;;4425611;28;656446;-73
2023/12/21 00:13:18;;;;;;;8.60;2.87;;;3.10;99.90;;;;;;4395307;28;656236;-73
2023/12/21 00:16:06;;;;;;;6.83;2.90;;;3.00;99.90;;;;;;4427794;28;657040;-73
2023/12/21 00:18:53;;;;;;;4.93;2.70;;;3.00;99.90;;;;;;4403194;28;656444;-73
2023/12/21 00:21:40;;;;;;;4.93;2.67;;;3.00;99.90;;;;;;4423290;28;657019;-73
2023/12/21 00:24:28;;;;;;;5.80;2.13;;;3.00;99.90;;;;;;4398825;28;657230;-73
2023/12/21 00:27:16;;;;;;;6.77;2.50;;;3.00;99.90;;;;;;4431313;28;657224;-73
2023/12/21 00:30:04;;;;;;;6.73;2.73;;;3.00;99.90;;;;;;4397764;28;656954;-72
2023/12/21 00:32:52;;;;;;;3.53;1.77;;;3.00;99.90;;;;;;4431745;28;657280;-73
2023/12/21 00:35:40;;;;;;;2.60;1.08;;;3.00;99.90;;;;;;4422012;28;657674;-72
2023/12/21 00:38:27;;;;;;;3.67;2.63;;;3.00;99.90;;;;;;4435586;28;656025;-73
2023/12/21 00:41:14;;;;;;;4.47;1.60;;;3.00;99.90;;;;;;4420704;28;657403;-73
2023/12/21 00:44:03;;;;;;;4.93;2.07;;;3.00;99.90;;;;;;4431470;28;656636;-73
2023/12/21 00:46:50;;;;;;;6.33;3.13;;;3.10;99.90;;;;;;4408896;28;657373;-73
2023/12/21 00:49:37;;;;;;;4.00;2.33;;;3.00;99.90;;;;;;4421249;28;656754;-73
2023/12/21 00:52:25;;;;;;;5.47;2.90;;;3.00;99.90;;;;;;4432306;28;657890;-73
2023/12/21 00:55:12;;;;;;;1.93;1.20;;;3.00;99.90;;;;;;4430842;28;656095;-73
2023/12/21 00:57:59;;;;;;;5.80;2.30;;;3.00;99.90;;;;;;4406313;28;657713;-73
2023/12/21 01:00:48;;;;;;;19.93;2.87;;;3.00;99.90;;;;;;4431921;28;656463;-73
2023/12/21 01:03:35;;;;;;;4.23;1.63;;;3.00;99.90;;;;;;4409884;28;657951;-73
2023/12/21 01:06:22;;;;;;;6.30;3.00;;;3.00;99.90;;;;;;4416649;28;657948;-72
2023/12/21 01:09:09;;;;;;;3.50;1.60;;;3.00;99.90;;;;;;4433778;28;656430;-72
2023/12/21 01:11:57;;;;;;;6.40;2.90;;;3.10;99.90;;;;;;4431919;28;655922;-73
2023/12/21 01:14:44;;;;;;;6.60;2.77;;;3.10;99.90;;;;;;4405107;28;657787;-73
2023/12/21 01:17:33;;;;;;;9.33;3.70;;;3.00;99.90;;;;;;4428029;28;657143;-73
2023/12/21 01:20:20;;;;;;;1.63;1.30;;;3.00;99.90;;;;;;4409439;28;657833;-73
2023/12/21 01:23:07;;;;;;;8.70;2.87;;;3.00;99.90;;;;;;4414835;28;656337;-72
2023/12/21 01:25:55;;;;;;;4.30;1.57;;;3.00;99.90;;;;;;4432378;28;656947;-73
2023/12/21 01:28:42;;;;;;;8.53;1.50;;;3.00;99.90;;;;;;4423989;28;656487;-72
2023/12/21 01:31:29;;;;;;;3.07;1.43;;;3.00;99.90;;;;;;4427416;28;656926;-72
2023/12/21 01:34:18;;;;;;;4.63;1.43;;;3.00;99.90;;;;;;4425911;28;656881;-73
2023/12/21 01:37:05;;;;;;;8.70;3.50;;;3.10;99.90;;;;;;4416090;28;657420;-73
2023/12/21 01:39:52;;;;;;;10.48;3.65;;;3.00;99.90;;;;;;4413322;28;657041;-72
2023/12/21 01:42:40;;;;;;;4.83;2.53;;;3.00;99.90;;;;;;4429296;28;658337;-73
2023/12/21 01:45:27;;;;;;;7.73;3.57;;;3.00;99.90;;;;;;4422624;28;656571;-73
2023/12/21 01:48:15;;;;;;;3.63;2.23;;;3.00;99.90;;;;;;4432682;28;657000;-73
2023/12/21 01:51:04;;;;;;;3.17;1.80;;;3.10;99.90;;;;;;4422900;28;657396;-73
2023/12/21 01:53:51;;;;;;;3.23;1.70;;;3.10;99.90;;;;;;4404852;28;656786;-73
2023/12/21 01:56:38;;;;;;;3.70;2.00;;;3.10;99.90;;;;;;4401182;28;657222;-73
2023/12/21 01:59:26;;;;;;;7.37;1.30;;;3.10;99.90;;;;;;4425693;28;656658;-73
2023/12/21 02:02:13;;;;;;;3.42;1.80;;;3.10;99.90;;;;;;4400940;28;656393;-73
2023/12/21 02:05:00;;;;;;;3.27;1.53;;;3.10;99.90;;;;;;4426677;28;656666;-72
2023/12/21 02:07:49;;;;;;;4.70;1.87;;;3.10;99.90;;;;;;4399838;28;656824;-72
2023/12/21 02:10:39;;;;;;;5.78;1.95;;;3.10;99.90;;;;;;4424553;28;656748;-73
2023/12/21 02:13:26;;;;;;;4.60;2.77;;;3.10;99.90;;;;;;4406757;28;656128;-73
2023/12/21 02:16:16;;;;;;;6.57;2.67;;;3.20;99.90;;;;;;4403068;28;656435;-73
2023/12/21 02:19:03;;;;;;;4.07;1.63;;;3.20;99.90;;;;;;4399670;28;656402;-73
2023/12/21 02:21:51;;;;;;;1.53;1.10;;;3.20;99.90;;;;;;4421126;28;657224;-73
2023/12/21 02:24:39;;;;;;;4.37;2.40;;;3.20;99.90;;;;;;4410375;28;656345;-73
2023/12/21 02:27:26;;;;;;;1.97;1.10;;;3.20;99.90;;;;;;4428588;28;657159;-73
2023/12/21 02:30:14;;;;;;;9.93;2.28;;;3.30;99.90;;;;;;4408073;28;657011;-73
2023/12/21 02:33:01;;;;;;;3.50;1.80;;;3.30;99.90;;;;;;4433475;28;656748;-73
2023/12/21 02:35:48;;;;;;;4.17;2.27;;;3.30;99.90;;;;;;4405449;28;656423;-73
2023/12/21 02:38:35;;;;;;;4.70;1.97;;;3.30;99.90;;;;;;4434525;28;657084;-73
2023/12/21 02:41:24;;;;;;;3.90;1.40;;;3.30;99.90;;;;;;4406328;28;656498;-73
2023/12/21 02:44:11;;;;;;;3.50;1.80;;;3.30;99.90;;;;;;4423635;28;656986;-73
2023/12/21 02:46:58;;;;;;;2.80;1.47;;;3.30;99.90;;;;;;4404395;28;656992;-73
2023/12/21 02:49:45;;;;;;;4.60;2.10;;;3.40;99.90;;;;;;4426407;28;656978;-73
2023/12/21 02:52:33;;;;;;;4.40;2.13;;;3.40;99.90;;;;;;4413986;28;657017;-73
2023/12/21 02:55:20;;;;;;;2.83;1.50;;;3.40;99.90;;;;;;4435824;28;657203;-74
2023/12/21 02:58:09;;;;;;;5.13;1.73;;;3.40;99.90;;;;;;4421562;28;656586;-73
2023/12/21 03:00:56;;;;;;;2.67;1.53;;;3.40;99.90;;;;;;4429322;28;656772;-73
2023/12/21 03:03:43;;;;;;;4.67;2.00;;;3.40;99.90;;;;;;4403110;28;656820;-73
2023/12/21 03:06:30;;;;;;;2.17;1.00;;;3.40;99.90;;;;;;4428529;28;656416;-73
2023/12/21 03:09:18;;;;;;;1.90;1.30;;;3.40;99.90;;;;;;4408347;28;656597;-73
2023/12/21 03:12:06;;;;;;;2.40;1.13;;;3.30;99.90;;;;;;4437502;28;657299;-73
2023/12/21 03:14:55;;;;;;;6.67;2.70;;;3.30;99.90;;;;;;4405759;28;656290;-73
2023/12/21 03:17:42;;;;;;;4.03;2.03;;;3.40;99.90;;;;;;4433864;28;655927;-73
2023/12/21 03:20:29;;;;;;;3.23;1.80;;;3.40;99.90;;;;;;4410513;28;656676;-73
2023/12/21 03:23:16;;;;;;;5.37;1.90;;;3.40;99.90;;;;;;4430589;28;656115;-73
2023/12/21 03:26:03;;;;;;;3.73;1.73;;;3.40;99.90;;;;;;4404140;28;656561;-72
2023/12/21 03:28:51;;;;;;;0.53;0.53;;;3.50;99.90;;;;;;4427282;28;657056;-73
2023/12/21 03:31:39;;;;;;;3.73;1.73;;;3.50;99.90;;;;;;4407812;28;657465;-73
2023/12/21 03:34:26;;;;;;;4.15;2.10;;;3.40;99.90;;;;;;4423497;28;656735;-73
2023/12/21 03:37:14;;;;;;;9.07;0.97;;;3.40;99.90;;;;;;4397176;28;656387;-73
2023/12/21 03:40:01;;;;;;;1.70;1.13;;;3.50;99.90;;;;;;4423202;28;657500;-73
2023/12/21 03:42:52;;;;;;;2.97;1.63;;;3.50;99.90;;;;;;4408012;28;656540;-73
2023/12/21 03:45:40;;;;;;;2.93;1.77;;;3.50;99.90;;;;;;4397341;28;656611;-73
2023/12/21 03:48:29;;;;;;;2.03;1.10;;;3.50;99.90;;;;;;4407542;28;656539;-73
2023/12/21 03:51:17;;;;;;;2.00;1.33;;;3.50;99.90;;;;;;4424384;28;656802;-73
2023/12/21 03:54:04;;;;;;;3.53;1.97;;;3.50;99.90;;;;;;4403450;28;657152;-73
2023/12/21 03:56:51;;;;;;;2.53;1.40;;;3.50;99.90;;;;;;4428644;28;656029;-73
2023/12/21 03:59:38;;;;;;;1.87;1.30;;;3.50;99.90;;;;;;4403893;28;656455;-72
2023/12/21 04:02:25;;;;;;;2.33;1.73;;;3.50;99.90;;;;;;4430510;28;656694;-73
2023/12/21 04:05:14;;;;;;;2.07;1.53;;;3.50;99.90;;;;;;4408377;28;656538;-72
2023/12/21 04:08:01;;;;;;;5.27;1.83;;;3.50;99.90;;;;;;4429224;28;656454;-73
2023/12/21 04:10:48;;;;;;;0.60;0.60;;;3.50;99.90;;;;;;4410741;28;656521;-73
2023/12/21 04:13:35;;;;;;;4.57;1.50;;;3.50;99.90;;;;;;4436254;28;657459;-73
2023/12/21 04:16:23;;;;;;;2.70;1.10;;;3.50;99.90;;;;;;4407029;28;657180;-72
2023/12/21 04:19:10;;;;;;;1.40;1.23;;;3.40;99.90;;;;;;4432224;28;657041;-73
2023/12/21 04:21:59;;;;;;;1.17;1.00;;;3.50;99.90;;;;;;4426680;28;656948;-72
2023/12/21 04:24:46;;;;;;;3.50;1.20;;;3.40;99.90;;;;;;4420326;28;656794;-72
2023/12/21 04:27:33;;;;;;;1.07;0.63;;;3.40;99.90;;;;;;4405550;28;657076;-72
2023/12/21 04:30:20;;;;;;;2.80;1.47;;;3.40;99.90;;;;;;4418361;28;657441;-73
2023/12/21 04:33:08;;;;;;;1.93;1.33;;;3.40;99.90;;;;;;4402808;28;656367;-73
2023/12/21 04:35:56;;;;;;;10.77;1.70;;;3.40;99.90;;;;;;4429414;28;657422;-73
2023/12/21 04:38:44;;;;;;;3.60;2.17;;;3.40;99.90;;;;;;4405093;28;657759;-73
2023/12/21 04:41:31;;;;;;;1.60;1.13;;;3.40;99.90;;;;;;4426208;28;656444;-73
2023/12/21 04:44:19;;;;;;;5.07;2.77;;;3.40;99.90;;;;;;4415861;28;657266;-73
2023/12/21 04:47:08;;;;;;;4.50;2.60;;;3.40;99.90;;;;;;4420049;28;656791;-73
2023/12/21 04:49:55;;;;;;;5.73;2.40;;;3.30;99.90;;;;;;4406181;28;656738;-73
2023/12/21 04:52:43;;;;;;;1.13;0.73;;;3.30;99.90;;;;;;4407882;28;656763;-73
2023/12/21 04:55:31;;;;;;;2.70;1.37;;;3.30;99.90;;;;;;4428727;28;656806;-73
2023/12/21 04:58:19;;;;;;;3.73;1.60;;;3.30;99.90;;;;;;4402922;28;656443;-73
2023/12/21 05:01:06;;;;;;;4.53;1.97;;;3.40;99.90;;;;;;4424190;28;656667;-73
2023/12/21 05:03:53;;;;;;;3.57;1.57;;;3.40;99.90;;;;;;4407160;28;657039;-73
2023/12/21 05:06:40;;;;;;;1.48;1.02;;;3.50;99.90;;;;;;4427977;28;656192;-73
2023/12/21 05:09:27;;;;;;;0.93;0.77;;;3.50;99.90;;;;;;4404086;28;656841;-73
2023/12/21 05:12:16;;;;;;;2.55;1.10;;;3.60;99.90;;;;;;4422781;28;658769;-73
2023/12/21 05:15:03;;;;;;;2.07;1.10;;;3.70;99.90;;;;;;4393185;28;656671;-73
2023/12/21 05:17:51;;;;;;;2.57;1.47;;;3.80;99.90;;;;;;4423223;28;657626;-73
2023/12/21 05:20:38;;;;;;;2.53;1.50;;;3.80;99.90;;;;;;4402799;28;656802;-72
2023/12/21 05:23:25;;;;;;;2.30;1.17;;;3.90;99.90;;;;;;4428866;28;657121;-72
2023/12/21 05:26:13;;;;;;;3.33;1.60;;;3.90;99.90;;;;;;4404546;28;656441;-72
2023/12/21 05:29:02;;;;;;;2.03;1.10;;;3.90;99.90;;;;;;4424182;28;657544;-73
2023/12/21 05:31:49;;;;;;;0.93;0.80;;;3.90;99.90;;;;;;4402112;28;657273;-72
2023/12/21 05:34:36;;;;;;;2.03;0.90;;;4.00;99.90;;;;;;4430492;28;656519;-72
2023/12/21 05:37:23;;;;;;;2.23;1.30;;;3.90;99.90;;;;;;4407655;28;656403;-73
2023/12/21 05:40:12;;;;;;;3.13;1.70;;;3.90;99.90;;;;;;4432788;28;657150;-73
2023/12/21 05:42:59;;;;;;;6.87;2.97;;;3.90;99.90;;;;;;4406310;28;657212;-72
2023/12/21 05:45:48;;;;;;;1.17;0.80;;;3.80;99.90;;;;;;4431226;28;656176;-73
2023/12/21 05:48:35;;;;;;;1.40;1.00;;;3.80;99.90;;;;;;4409403;28;657352;-73
2023/12/21 05:51:22;;;;;;;3.37;1.30;;;3.80;99.90;;;;;;4419448;28;656554;-72
2023/12/21 05:54:10;;;;;;;1.73;0.93;;;3.70;99.90;;;;;;4423786;28;656987;-73
2023/12/21 05:56:58;;;;;;;3.43;1.77;;;3.60;99.90;;;;;;4429672;28;656071;-73
2023/12/21 05:59:45;;;;;;;2.73;1.43;;;3.50;99.90;;;;;;4402677;28;657668;-72
2023/12/21 06:02:34;;;;;;;4.17;0.70;;;3.50;99.90;;;;;;4416755;28;657064;-72
2023/12/21 06:05:21;;;;;;;3.30;1.70;;;3.40;99.90;;;;;;4416809;28;656720;-72
2023/12/21 06:08:08;;;;;;;1.90;1.40;;;3.40;99.90;;;;;;4410054;28;657133;-72
2023/12/21 06:10:55;;;;;;;3.83;1.90;;;3.30;99.90;;;;;;4423628;28;657096;-72
2023/12/21 06:13:42;;;;;;;2.50;1.42;;;3.30;99.90;;;;;;4412852;28;657800;-72
2023/12/21 06:16:30;;;;;;;3.20;1.93;;;3.30;99.90;;;;;;4430236;28;656031;-72
2023/12/21 06:19:18;;;;;;;3.07;2.13;;;3.30;99.90;;;;;;4422697;28;656660;-72
2023/12/21 06:22:06;;;;;;;1.53;0.83;;;3.30;99.90;;;;;;4400933;28;657110;-72
2023/12/21 06:24:53;;;;;;;3.00;1.80;;;3.30;99.90;;;;;;4405496;28;656408;-72
2023/12/21 06:27:40;;;;;;;3.83;1.70;;;3.30;99.90;;;;;;4430507;28;658096;-72
2023/12/21 06:30:27;;;;;;;2.10;0.93;;;3.20;99.90;;;;;;4403449;28;656253;-72
2023/12/21 06:33:14;;;;;;;3.43;1.93;;;3.20;99.90;;;;;;4428170;28;657390;-72
2023/12/21 06:36:03;;;;;;;2.70;1.80;;;3.20;99.90;;;;;;4426513;28;656113;-73
2023/12/21 06:38:52;;;;;;;5.67;2.93;;;3.10;99.90;;;;;;4398709;28;657468;-73
2023/12/21 06:41:39;;;;;;;5.67;2.90;;;3.20;99.90;;;;;;4409358;28;657439;-73
2023/12/21 06:44:26;;;;;;;4.57;2.10;;;3.10;99.90;;;;;;4423228;28;656685;-72
2023/12/21 06:47:13;;;;;;;5.67;2.97;;;3.10;99.90;;;;;;4404401;28;657181;-72
2023/12/21 06:50:00;;;;;;;4.50;2.73;;;3.10;99.90;;;;;;4428830;28;657119;-72
2023/12/21 06:52:49;;;;;;;5.47;3.17;;;3.10;99.90;;;;;;4408934;28;656733;-72
2023/12/21 06:55:36;;;;;;;5.50;3.80;;;3.00;99.90;;;;;;4420567;28;657455;-73
2023/12/21 06:58:24;;;;;;;3.90;2.23;;;3.00;99.90;;;;;;4408083;28;656694;-73
2023/12/21 07:01:11;;;;;;;3.83;2.30;;;3.00;99.90;;;;;;4427731;28;656702;-73
2023/12/21 07:03:58;;;;;;;3.73;2.30;;;3.00;99.90;;;;;;4408523;28;657033;-73
2023/12/21 07:06:46;;;;;;;3.33;2.03;;;2.90;99.90;;;;;;4427082;28;657375;-73
2023/12/21 07:09:34;;;;;;;9.67;3.67;;;3.00;99.90;;;;;;4407297;28;656696;-72
2023/12/21 07:12:22;;;;;;;2.90;2.13;;;3.00;99.90;;;;;;4427821;28;656478;-72
2023/12/21 07:15:11;;;;;;;2.43;1.70;;;3.00;99.90;;;;;;4413834;28;657131;-71
2023/12/21 07:17:59;;;;;;;1.37;0.90;;;3.10;99.90;;;;;;4405757;28;656474;-71
2023/12/21 07:20:46;;;;;;;6.67;3.40;;;3.10;99.90;;;;;;4425827;28;656788;-72
2023/12/21 07:23:33;;;;;;;2.87;1.57;;;3.10;99.90;;;;;;4410336;28;656586;-71
2023/12/21 07:26:21;;;;;;;4.67;2.80;;;3.10;99.90;;;;;;4432601;28;657536;-71
2023/12/21 07:29:09;;;;;;;3.47;2.03;;;3.10;99.90;;;;;;4411894;28;656836;-71
2023/12/21 07:31:56;;;;;;;6.77;3.17;;;3.10;99.90;;;;;;4431171;28;657366;-71
2023/12/21 07:34:43;;;;;;;4.43;1.80;;;3.00;99.90;;;;;;4407213;28;657696;-71
2023/12/21 07:37:30;;;;;;;2.90;1.52;;;3.00;99.90;;;;;;4420211;28;657069;-71
2023/12/21 07:40:17;;;;;;;2.30;1.40;;;3.00;99.90;;;;;;4408510;28;657078;-71
2023/12/21 07:43:06;;;;;;;3.50;1.67;;;2.90;99.90;;;;;;4428651;28;656558;-72
2023/12/21 07:45:53;;;;;;;2.33;1.10;;;2.90;99.90;;;;;;4389131;28;656980;-71
2023/12/21 07:48:40;;;;;;;3.83;2.27;;;2.90;99.90;;;;;;4425797;28;657511;-72
2023/12/21 07:51:27;;;;;;;3.03;1.80;;;2.80;99.90;;;;;;4404203;28;657195;-72
2023/12/21 07:54:15;;;;;;;1.53;0.77;;;2.80;99.90;;;;;;4423830;28;657909;-71
2023/12/21 07:57:03;;;;;;;3.53;1.63;;;2.90;99.90;;;;;;4417818;28;656255;-72
2023/12/21 07:59:51;;;;;;;2.70;1.43;;;2.80;99.90;;;;;;4425424;28;657963;-72
2023/12/21 08:02:44;;;;;;;1.93;1.57;;;2.90;99.90;;;;;;4393902;28;656455;-72
2023/12/21 08:05:31;;;;;;;6.27;2.00;;;2.90;99.90;;;;;;4402023;28;656996;-72
2023/12/21 08:08:19;;;;;;;3.67;2.07;;;2.90;99.90;;;;;;4413641;28;656789;-72
2023/12/21 08:11:06;;;;;;;3.03;1.40;;;2.80;99.90;;;;;;4417608;28;656802;-72
2023/12/21 08:13:53;;;;;;;5.57;3.00;;;2.90;99.90;;;;;;4402389;28;656675;-72
2023/12/21 08:16:41;;;;;;;1.70;1.20;;;2.80;99.90;;;;;;4432108;28;657770;-72
2023/12/21 08:19:29;;;;;;;4.30;2.53;;;2.80;99.90;;;;;;4397421;28;656609;-73
2023/12/21 08:22:16;;;;;;;3.77;2.10;;;2.80;99.90;;;;;;4425418;28;656352;-72
2023/12/21 08:25:03;;;;;;;2.90;2.00;;;2.80;99.90;;;;;;4416208;28;656678;-72
2023/12/21 08:27:51;;;;;;;3.90;1.43;;;2.80;99.90;;;;;;4429252;28;656925;-73
2023/12/21 08:30:41;;;;;;;3.07;2.30;;;2.80;99.90;;;;;;4402374;28;656795;-72
2023/12/21 08:33:30;;;;;;;2.33;1.77;;;2.80;99.90;;;;;;4407081;28;656454;-73
2023/12/21 08:36:17;;;;;;;4.90;2.07;;;2.80;99.90;;;;;;4417479;28;657067;-72
2023/12/21 08:39:05;;;;;;;5.00;2.83;;;2.90;99.90;;;;;;4426387;28;657213;-72
2023/12/21 08:41:52;;;;;;;4.03;2.73;;;2.80;99.90;;;;;;4426181;28;655702;-73
2023/12/21 08:44:39;;;;;;;2.70;1.63;;;2.90;99.90;;;;;;4401593;28;657482;-72
2023/12/21 08:47:26;;;;;;;4.37;2.57;;;3.00;99.90;;;;;;4427235;28;656974;-72
2023/12/21 08:50:15;;;;;;;3.97;1.70;;;3.00;99.90;;;;;;4401884;28;657078;-73
2023/12/21 08:53:03;;;;;;;3.50;2.23;;;3.10;99.90;;;;;;4409050;28;656707;-72
2023/12/21 08:55:50;;;;;;;2.00;1.00;;;3.10;99.90;;;;;;4437855;28;656933;-72
2023/12/21 08:58:37;;;;;;;1.77;1.10;;;3.20;99.90;;;;;;4415256;28;657569;-72
2023/12/21 09:01:25;;;;;;;4.10;2.47;;;3.30;99.90;;;;;;4436974;28;657140;-72
2023/12/21 09:04:12;;;;;;;2.83;1.43;;;3.30;99.90;;;;;;4423279;28;656522;-72
2023/12/21 09:07:00;;;;;;;5.37;2.00;;;3.40;99.90;;;;;;4405280;28;657155;-72
2023/12/21 09:09:47;;;;;;;3.83;1.50;;;3.40;99.90;;;;;;4413181;28;656799;-72
2023/12/21 09:12:35;;;;;;;2.70;1.60;;;3.50;99.90;;;;;;4426333;28;657650;-73
2023/12/21 09:15:23;;;;;;;5.55;2.03;;;3.50;99.90;;;;;;4413027;28;657083;-72
2023/12/21 09:18:11;;;;;;;4.40;1.27;;;3.60;99.90;;;;;;4431690;28;656809;-72
2023/12/21 09:20:58;;;;;;;2.17;1.33;;;3.70;99.90;;;;;;4408832;28;657092;-72
2023/12/21 09:23:47;;;;;;;3.07;1.77;;;3.70;99.90;;;;;;4430612;28;657142;-73
2023/12/21 09:26:34;;;;;;;5.93;1.53;;;3.80;99.90;;;;;;4406490;28;657106;-72
2023/12/21 09:29:21;;;;;;;2.17;1.50;;;3.90;99.90;;;;;;4425776;28;656672;-72
2023/12/21 09:32:09;;;;;;;6.67;2.20;;;4.00;99.90;;;;;;4411140;28;657247;-72
2023/12/21 09:34:56;;;;;;;6.20;2.40;;;4.10;99.90;;;;;;4432636;28;657110;-72
2023/12/21 09:37:43;;;;;;;2.43;1.30;;;4.20;99.90;;;;;;4409403;28;656682;-72
2023/12/21 09:40:34;;;;;;;4.27;2.13;;;4.30;99.90;;;;;;4427767;28;656869;-72
2023/12/21 09:43:22;;;;;;;3.27;1.70;;;4.30;99.90;;;;;;4402438;28;656263;-72
2023/12/21 09:46:10;;;;;;;3.37;1.37;;;4.40;99.90;;;;;;4407262;28;657352;-72
2023/12/21 09:48:57;;;;;;;1.50;1.20;;;4.40;99.90;;;;;;4434077;28;657968;-72
2023/12/21 09:51:45;;;;;;;1.83;1.00;;;4.50;99.90;;;;;;4419362;28;657593;-72
2023/12/21 09:54:32;;;;;;;3.33;1.17;;;4.60;99.90;;;;;;4411769;28;656741;-72
2023/12/21 09:57:21;;;;;;;1.83;1.10;;;4.60;99.90;;;;;;4419657;28;656971;-72
2023/12/21 10:00:10;;;;;;;2.40;1.20;;;4.70;99.90;;;;;;4412284;28;656982;-72
2023/12/21 10:02:58;;;;;;;2.83;1.30;;;4.70;99.90;;;;;;4423895;28;656293;-72
2023/12/21 10:05:47;;;;;;;2.50;1.10;;;4.70;99.90;;;;;;4423112;28;657481;-72
2023/12/21 10:08:34;;;;;;;3.67;1.43;;;4.80;99.90;;;;;;4405005;28;656770;-72
2023/12/21 10:11:21;;;;;;;1.77;0.90;;;4.90;99.90;;;;;;4430486;28;656467;-72
2023/12/21 10:14:19;;;;;;;2.13;1.00;;;5.00;99.90;;;;;;4401216;28;656898;-72
2023/12/21 10:17:09;;;;;;;1.57;0.97;;;5.00;99.90;;;;;;4406511;28;656864;-72
2023/12/21 10:19:58;;;;;;;2.42;1.20;;;5.00;99.90;;;;;;4378856;28;656369;-72
2023/12/21 10:22:45;;;;;;;1.70;1.00;;;5.00;99.90;;;;;;4429203;28;657416;-72
2023/12/21 10:25:33;;;;;;;0.75;0.52;;;5.10;99.90;;;;;;4413584;28;656804;-72
2023/12/21 10:28:22;;;;;;;1.63;1.03;;;5.20;99.90;;;;;;4420545;28;657373;-72
2023/12/21 10:31:11;;;;;;;28.30;8.73;;;5.20;99.90;;;;;;4403407;28;657578;-72
2023/12/21 10:33:58;;;;;;;3.57;1.93;;;5.20;99.90;;;;;;4404365;28;658104;-71
2023/12/21 10:36:46;;;;;;;2.53;1.17;;;5.20;99.90;;;;;;4426887;28;656483;-71
2023/12/21 10:39:33;;;;;;;1.70;0.80;;;5.20;99.90;;;;;;4405639;28;656352;-72
2023/12/21 10:42:20;;;;;;;1.00;0.60;;;5.20;99.90;;;;;;4428902;28;657803;-72
2023/12/21 10:45:08;;;;;;;1.73;0.90;;;5.30;99.90;;;;;;4406979;28;656435;-72
2023/12/21 10:47:56;;;;;;;1.43;0.53;;;5.30;99.90;;;;;;4424482;28;656958;-72
2023/12/21 10:50:45;;;;;;;2.17;1.33;;;5.30;99.90;;;;;;4397836;28;656884;-72
2023/12/21 10:53:32;;;;;;;2.92;1.15;;;5.30;99.90;;;;;;4409096;28;656776;-72
2023/12/21 10:56:21;;;;;;;0.20;0.20;;;5.30;99.90;;;;;;4427219;28;657763;-72
2023/12/21 10:59:08;;;;;;;2.00;0.80;;;5.40;99.90;;;;;;4408211;28;657101;-72
2023/12/21 11:01:55;;;;;;;3.17;1.20;;;5.40;99.90;;;;;;4423969;28;657289;-72
2023/12/21 11:04:44;;;;;;;1.23;0.68;;;5.40;99.90;;;;;;4406664;28;657339;-72
2023/12/21 11:07:32;;;;;;;1.63;1.07;;;5.40;99.90;;;;;;4419317;28;657129;-72
2023/12/21 11:10:21;;;;;;;4.10;2.00;;;5.40;99.90;;;;;;4410557;28;657500;-72
2023/12/21 11:13:08;;;;;;;0.93;0.50;;;5.50;99.90;;;;;;4410627;28;657264;-72
2023/12/21 11:15:55;;;;;;;2.73;2.00;;;5.40;99.90;;;;;;4429653;28;657270;-72
2023/12/21 11:18:43;;;;;;;1.50;0.83;;;5.40;99.90;;;;;;4401477;28;656965;-71
2023/12/21 11:21:32;;;;;;;1.70;0.70;;;5.40;99.90;;;;;;4423016;28;657227;-72
2023/12/21 11:24:22;;;;;;;1.73;0.87;;;5.40;99.90;;;;;;4409046;28;657045;-72
2023/12/21 11:27:09;;;;;;;3.50;1.97;;;5.40;99.90;;;;;;4405140;28;657705;-72
2023/12/21 11:29:56;;;;;;;4.10;1.67;;;5.30;99.90;;;;;;4423047;28;656220;-72
2023/12/21 11:32:44;;;;;;;0.57;0.57;;;5.20;99.90;;;;;;4406608;28;656464;-71
2023/12/21 11:35:31;;;;;;;2.47;1.10;;;5.10;99.90;;;;;;4434244;28;657353;-71
2023/12/21 11:38:24;;;;;;;1.90;0.80;;;5.00;99.90;;;;;;4402732;28;656534;-71
2023/12/21 11:41:11;;;;;;;2.30;1.03;;;4.90;99.90;;;;;;4399451;28;656534;-72
2023/12/21 11:44:02;;;;;;;2.73;1.57;;;4.80;99.90;;;;;;4403326;28;657407;-72
2023/12/21 11:46:49;;;;;;;2.40;1.43;;;4.70;99.90;;;;;;4412355;28;657625;-72
2023/12/21 11:49:37;;;;;;;2.20;1.40;;;4.60;99.90;;;;;;4431555;28;656377;-72
2023/12/21 11:52:24;;;;;;;1.60;0.80;;;4.40;99.90;;;;;;4413583;28;658113;-71
2023/12/21 11:55:23;;;;;;;4.93;1.63;;;4.30;99.90;;;;;;4431663;28;656360;-72
2023/12/21 11:58:16;;;;;;;4.00;1.70;;;4.30;99.90;;;;;;4415528;28;656755;-72
2023/12/21 12:01:03;;;;;;;4.77;2.10;;;4.10;99.90;;;;;;4409992;28;657161;-72
2023/12/21 12:03:51;;;;;;;2.77;1.37;;;4.00;99.90;;;;;;4423070;28;657687;-72
2023/12/21 12:06:38;;;;;;;2.63;1.27;;;4.00;99.90;;;;;;4413098;28;657829;-71
2023/12/21 12:09:25;;;;;;;3.87;1.67;;;4.00;99.90;;;;;;4430223;28;657908;-72
2023/12/21 12:12:14;;;;;;;2.30;1.30;;;3.90;99.90;;;;;;4410667;28;656421;-71
2023/12/21 12:15:01;;;;;;;2.33;1.43;;;3.90;99.90;;;;;;4437978;28;656096;-72
2023/12/21 12:17:48;;;;;;;1.48;0.80;;;3.90;99.90;;;;;;4405994;28;656698;-72
2023/12/21 12:20:41;;;;;;;2.47;1.60;;;3.90;99.90;;;;;;4428244;28;657145;-72
2023/12/21 12:23:28;;;;;;;3.03;1.45;;;3.90;99.90;;;;;;4386996;28;657199;-71
2023/12/21 12:26:16;;;;;;;3.83;1.67;;;3.90;99.90;;;;;;4424997;28;656860;-72
2023/12/21 12:29:05;;;;;;;2.75;1.65;;;3.80;99.90;;;;;;4411859;28;656428;-72
2023/12/21 12:31:52;;;;;;;2.97;2.00;;;3.80;99.90;;;;;;4432218;28;656812;-72
2023/12/21 12:34:39;;;;;;;2.13;1.60;;;3.80;99.90;;;;;;4417522;28;658253;-71
2023/12/21 12:37:26;;;;;;;1.73;1.27;;;3.80;99.90;;;;;;4432473;28;656385;-72
2023/12/21 12:40:13;;;;;;;5.20;2.07;;;3.80;99.90;;;;;;4414466;28;657723;-71
2023/12/21 12:43:00;;;;;;;2.75;1.27;;;3.70;99.90;;;;;;4430123;28;658381;-72
2023/12/21 12:45:49;;;;;;;2.20;1.33;;;3.70;99.90;;;;;;4412268;28;656656;-72
2023/12/21 12:48:37;;;;;;;2.07;1.10;;;3.70;99.90;;;;;;4435502;28;656828;-71
2023/12/21 12:51:24;;;;;;;2.50;1.20;;;3.70;99.90;;;;;;4408702;28;657486;-72
2023/12/21 12:54:11;;;;;;;2.90;1.57;;;3.70;99.90;;;;;;4423621;28;656679;-71
2023/12/21 12:57:01;;;;;;;4.00;2.23;;;3.70;99.90;;;;;;4413281;28;656634;-71
2023/12/21 12:59:48;;;;;;;3.93;2.40;;;3.60;99.90;;;;;;4407163;28;656306;-72
2023/12/21 13:02:37;;;;;;;3.17;1.70;;;3.60;99.90;;;;;;4433409;28;656982;-71
2023/12/21 13:05:24;;;;;;;1.77;1.20;;;3.60;99.90;;;;;;4411003;28;657408;-72
2023/12/21 13:08:12;;;;;;;3.80;1.50;;;3.60;99.90;;;;;;4432299;28;656765;-72
2023/12/21 13:10:59;;;;;;;3.27;0.87;;;3.60;99.90;;;;;;4405235;28;656572;-72
2023/12/21 13:13:46;;;;;;;3.57;2.00;;;3.60;99.90;;;;;;4429428;28;656930;-71
2023/12/21 13:16:33;;;;;;;4.33;2.37;;;3.50;99.90;;;;;;4421672;28;656544;-71
2023/12/21 13:19:22;;;;;;;2.67;1.60;;;3.60;99.90;;;;;;4434945;28;656967;-72
2023/12/21 13:22:11;;;;;;;3.20;2.17;;;3.60;99.90;;;;;;4407686;28;656771;-73
2023/12/21 13:24:58;;;;;;;5.53;3.10;;;3.60;99.90;;;;;;4408254;28;656459;-71
2023/12/21 13:27:45;;;;;;;5.87;2.90;;;3.60;99.90;;;;;;4440406;28;656359;-72
2023/12/21 13:30:32;;;;;;;2.95;1.42;;;3.50;99.90;;;;;;4413499;28;656599;-71
2023/12/21 13:33:20;;;;;;;3.97;1.90;;;3.60;99.90;;;;;;4429260;28;657882;-73
2023/12/21 13:36:09;;;;;;;6.43;3.60;;;3.60;99.90;;;;;;4429583;28;657070;-71
2023/12/21 13:38:57;;;;;;;2.40;1.60;;;3.50;99.90;;;;;;4433794;28;657015;-72
2023/12/21 13:41:44;;;;;;;5.17;2.37;;;3.60;99.90;;;;;;4406663;28;657160;-74
2023/12/21 13:44:31;;;;;;;4.27;2.67;;;3.60;99.90;;;;;;4429704;28;656607;-74
2023/12/21 13:47:19;;;;;;;1.93;1.20;;;3.50;99.90;;;;;;4410001;28;656529;-72
2023/12/21 13:50:07;;;;;;;2.47;1.23;;;3.50;99.90;;;;;;4429828;28;657093;-74
2023/12/21 13:52:56;;;;;;;5.47;1.70;;;3.50;99.90;;;;;;4405023;28;656762;-74
2023/12/21 13:55:43;;;;;;;6.18;1.70;;;3.50;99.90;;;;;;4405415;28;656525;-74
2023/12/21 13:58:30;;;;;;;1.07;0.67;;;3.40;99.90;;;;;;4420035;28;657161;-74
2023/12/21 14:01:22;;;;;;;4.05;1.83;;;3.40;99.90;;;;;;4407831;28;656453;-74
2023/12/21 14:04:09;;;;;;;2.67;1.60;;;3.40;99.90;;;;;;4399979;28;657217;-74
2023/12/21 14:06:57;;;;;;;5.93;1.20;;;3.40;99.90;;;;;;4428860;28;656753;-74
2023/12/21 14:09:46;;;;;;;2.53;1.03;;;3.40;99.90;;;;;;4403317;28;657582;-75
2023/12/21 14:12:34;;;;;;;2.40;1.30;;;3.40;99.90;;;;;;4403357;28;656869;-76
2023/12/21 14:15:21;;;;;;;1.33;0.80;;;3.40;99.90;;;;;;4426588;28;656058;-75
2023/12/21 14:18:08;;;;;;;3.63;1.50;;;3.40;99.90;;;;;;4407305;28;656738;-75
2023/12/21 14:20:55;;;;;;;3.80;2.07;;;3.40;99.90;;;;;;4428377;28;657072;-75
2023/12/21 14:23:42;;;;;;;4.07;2.03;;;3.40;99.90;;;;;;4405279;28;656883;-75
2023/12/21 14:26:31;;;;;;;2.50;0.83;;;3.40;99.90;;;;;;4426431;28;657336;-75
2023/12/21 14:29:19;;;;;;;1.98;1.23;;;3.40;99.90;;;;;;4399210;28;656505;-75
2023/12/21 14:32:07;;;;;;;3.23;1.50;;;3.40;99.90;;;;;;4422059;28;656358;-75